»·PEaware :: DAL954 KSLC-KLAX

DAL954 :: KSLC-KLAX

FLIGHT INFORMATION

Flight Status: Arrived
Operator:
Delta Air Lines
More flights by this operator :: More flights under this callsign
Pilot: Daniel Corbe (12704)
Aircraft: BOEING 717-200
(B712)
More flights by this aircraft type
Origin: KSLC Salt Lake City Intl
United States
Destination: KLAX Los Angeles Intl
United States
More flights between these airports :: More routes between these airports
Route: +EDETH4 BERYL LAKRR Q88 JAKMN ANJLL1
File this flight plan on PilotEdge
Remarks:
Altitude:
(Current/Filed)
32,000ft
Speed:
(Current/Filed)
480kts
Departed: 17-Jun-17 01:45 PM
Arrived: 17-Jun-17 03:15 PM
Distance/Time
Traveled:
512nm/1:30
Distance/Time
To Go:
Arrived

Flight Plot

Page will automatically refresh every two minutes.

Flight plan parsing failed; only flown route is shown


Map Options




Map Legend


Flown Route
Filed Route
Departure Airport
Arrival Airport
Navaid (VOR, NDB)
Fix

Horizontal Profiles

Position Reports

Time Latitude Longitude Heading Altitude Ground
Speed
17-Jun-17 13:11 40.784750 -111.978022 3 4235ft 0kts
17-Jun-17 13:12 40.784750 -111.978022 3 4235ft 0kts
17-Jun-17 13:13 40.784750 -111.978022 3 4235ft 0kts
17-Jun-17 13:14 40.784750 -111.978022 3 4235ft 0kts
17-Jun-17 13:15 40.784750 -111.978022 3 4235ft 0kts
17-Jun-17 13:16 40.784750 -111.978022 3 4235ft 0kts
17-Jun-17 13:17 40.784750 -111.978022 3 4235ft 0kts
17-Jun-17 13:18 40.784750 -111.978022 3 4235ft 0kts
17-Jun-17 13:19 40.784750 -111.978022 3 4235ft 0kts
17-Jun-17 13:20 40.784685 -111.978028 3 4235ft 2kts
17-Jun-17 13:21 40.784194 -111.978355 51 4235ft 0kts
17-Jun-17 13:22 40.784194 -111.978355 51 4235ft 0kts
17-Jun-17 13:23 40.784194 -111.978355 50 4235ft 0kts
17-Jun-17 13:24 40.784194 -111.978354 50 4235ft 0kts
17-Jun-17 13:25 40.784195 -111.978354 50 4235ft 0kts
17-Jun-17 13:26 40.784195 -111.978353 50 4235ft 0kts
17-Jun-17 13:27 40.784195 -111.978353 50 4235ft 0kts
17-Jun-17 13:28 40.784195 -111.978353 50 4235ft 0kts
17-Jun-17 13:29 40.784196 -111.978352 49 4235ft 0kts
17-Jun-17 13:30 40.784196 -111.978352 49 4235ft 0kts
17-Jun-17 13:31 40.784196 -111.978351 49 4235ft 0kts
17-Jun-17 13:32 40.784196 -111.978351 49 4235ft 0kts
17-Jun-17 13:33 40.784197 -111.978351 49 4235ft 0kts
17-Jun-17 13:34 40.784197 -111.978350 48 4235ft 0kts
17-Jun-17 13:35 40.784197 -111.978350 48 4235ft 0kts
17-Jun-17 13:36 40.784197 -111.978349 48 4235ft 0kts
17-Jun-17 13:37 40.784198 -111.978349 48 4235ft 0kts
17-Jun-17 13:38 40.784198 -111.978349 48 4235ft 0kts
17-Jun-17 13:39 40.784198 -111.978348 47 4235ft 0kts
17-Jun-17 13:40 40.784199 -111.978348 47 4235ft 0kts
17-Jun-17 13:41 40.784199 -111.978347 47 4235ft 0kts
17-Jun-17 13:42 40.783568 -111.976426 173 4235ft 12kts
17-Jun-17 13:43 40.779235 -111.975533 156 4235ft 22kts
17-Jun-17 13:44 40.774453 -111.974786 117 4235ft 0kts
17-Jun-17 13:45 40.774453 -111.974785 117 4235ft 0kts
17-Jun-17 13:46 40.774754 -111.973434 44 4235ft 12kts
17-Jun-17 13:47 40.790432 -111.974952 354 4236ft 153kts
17-Jun-17 13:48 40.836502 -111.992730 295 5696ft 191kts
17-Jun-17 13:49 40.829081 -112.061926 269 7819ft 217kts
17-Jun-17 13:50 40.822010 -112.151974 258 9473ft 283kts
17-Jun-17 13:51 40.781633 -112.252520 217 10913ft 351kts
17-Jun-17 13:52 40.692222 -112.290207 195 15177ft 326kts
17-Jun-17 13:53 40.600164 -112.305904 194 18037ft 342kts
17-Jun-17 13:54 40.504284 -112.324339 195 20676ft 355kts
17-Jun-17 13:55 40.404072 -112.345298 195 22848ft 373kts
17-Jun-17 13:56 40.297675 -112.385499 214 23021ft 425kts
17-Jun-17 13:57 40.189615 -112.462534 213 24194ft 444kts
17-Jun-17 13:58 40.079725 -112.539947 213 25717ft 452kts
17-Jun-17 13:59 39.967928 -112.618430 213 26946ft 463kts
17-Jun-17 14:00 39.853657 -112.698315 212 28159ft 469kts
17-Jun-17 14:01 39.738649 -112.778422 212 29671ft 467kts
17-Jun-17 14:02 39.617772 -112.840358 197 31183ft 473kts
17-Jun-17 14:03 39.490492 -112.881725 197 32136ft 472kts
17-Jun-17 14:04 39.363882 -112.923336 197 32147ft 468kts
17-Jun-17 14:05 39.237619 -112.964664 197 32150ft 469kts
17-Jun-17 14:06 39.111164 -113.005389 196 32153ft 469kts
17-Jun-17 14:07 38.984195 -113.045877 196 32143ft 469kts
17-Jun-17 14:08 38.857546 -113.086119 196 32139ft 469kts
17-Jun-17 14:09 38.730820 -113.126239 196 32128ft 470kts
17-Jun-17 14:10 38.603628 -113.166357 195 32110ft 470kts
17-Jun-17 14:11 38.476860 -113.206197 195 32096ft 470kts
17-Jun-17 14:12 38.350013 -113.245917 195 32095ft 470kts
17-Jun-17 14:13 38.222753 -113.285623 195 32095ft 470kts
17-Jun-17 14:14 38.095816 -113.325086 195 32096ft 470kts
17-Jun-17 14:15 37.968926 -113.364402 194 32099ft 470kts
17-Jun-17 14:16 37.843979 -113.413800 203 32101ft 469kts
17-Jun-17 14:17 37.722989 -113.475598 202 32097ft 470kts
17-Jun-17 14:18 37.601722 -113.536895 202 32073ft 470kts
17-Jun-17 14:19 37.480007 -113.598211 202 32034ft 470kts
17-Jun-17 14:20 37.358779 -113.659066 202 31962ft 470kts
17-Jun-17 14:22 37.237309 -113.719831 202 31927ft 471kts
17-Jun-17 14:23 37.115148 -113.780728 201 31915ft 473kts
17-Jun-17 14:24 36.993107 -113.841355 201 31923ft 472kts
17-Jun-17 14:25 36.870994 -113.901808 201 31914ft 473kts
17-Jun-17 14:26 36.748182 -113.962397 201 31911ft 473kts
17-Jun-17 14:27 36.625717 -114.022607 200 31910ft 474kts
17-Jun-17 14:28 36.503199 -114.082634 200 31923ft 474kts
17-Jun-17 14:29 36.380108 -114.142739 200 31927ft 475kts
17-Jun-17 14:30 36.257313 -114.202496 200 31927ft 474kts
17-Jun-17 14:31 36.134542 -114.262036 200 31899ft 474kts
17-Jun-17 14:32 36.031013 -114.360227 229 31898ft 477kts
17-Jun-17 14:33 35.943267 -114.482922 227 31895ft 478kts
17-Jun-17 14:34 35.854823 -114.604831 227 31797ft 474kts
17-Jun-17 14:35 35.767717 -114.724486 227 29571ft 462kts
17-Jun-17 14:36 35.683448 -114.839837 227 27488ft 446kts
17-Jun-17 14:37 35.602136 -114.951060 227 25445ft 430kts
17-Jun-17 14:38 35.523453 -115.058437 228 23925ft 414kts
17-Jun-17 14:39 35.444345 -115.162761 226 23873ft 419kts
17-Jun-17 14:40 35.364667 -115.266681 226 23874ft 419kts
17-Jun-17 14:41 35.284629 -115.370756 226 23875ft 419kts
17-Jun-17 14:42 35.204782 -115.474263 226 23884ft 419kts
17-Jun-17 14:43 35.124817 -115.577618 226 23904ft 419kts
17-Jun-17 14:44 35.044349 -115.681030 226 23915ft 419kts
17-Jun-17 14:45 34.963921 -115.784091 226 23923ft 420kts
17-Jun-17 14:46 34.883353 -115.887016 226 23932ft 420kts
17-Jun-17 14:47 34.802430 -115.990082 226 23940ft 420kts
17-Jun-17 14:48 34.721677 -116.092618 226 23925ft 420kts
17-Jun-17 14:49 34.640699 -116.195132 226 23953ft 421kts
17-Jun-17 14:50 34.559221 -116.297967 226 24007ft 421kts
17-Jun-17 14:51 34.477918 -116.400273 226 24027ft 422kts
17-Jun-17 14:52 34.403350 -116.508843 242 24140ft 422kts
17-Jun-17 14:53 34.351538 -116.635705 243 23494ft 414kts
17-Jun-17 14:54 34.301515 -116.758948 244 21564ft 401kts
17-Jun-17 14:55 34.254358 -116.875964 244 19711ft 381kts
17-Jun-17 14:56 34.209992 -116.988946 249 18159ft 364kts
17-Jun-17 14:57 34.178547 -117.103515 252 16365ft 354kts
17-Jun-17 14:58 34.148116 -117.214901 252 14598ft 345kts
17-Jun-17 14:59 34.118179 -117.323558 252 12881ft 335kts
17-Jun-17 15:00 34.090496 -117.429306 253 11037ft 326kts
17-Jun-17 15:01 34.068125 -117.528675 258 9016ft 262kts
17-Jun-17 15:02 34.055322 -117.604411 258 8262ft 218kts
17-Jun-17 15:03 34.043726 -117.672959 258 6375ft 207kts
17-Jun-17 15:04 34.033123 -117.735362 258 4991ft 174kts
17-Jun-17 15:05 34.023704 -117.790685 257 2729ft 164kts
17-Jun-17 15:06 34.014693 -117.843366 257 1918ft 161kts
17-Jun-17 15:07 34.005954 -117.894375 256 1891ft 151kts
17-Jun-17 15:08 33.997353 -117.944391 257 2591ft 151kts
17-Jun-17 15:09 33.988822 -117.993992 256 2088ft 146kts
17-Jun-17 15:10 33.975653 -118.041078 252 1890ft 150kts
17-Jun-17 15:11 33.967681 -118.090585 259 1878ft 148kts
17-Jun-17 15:12 33.962223 -118.139845 261 1883ft 148kts
17-Jun-17 15:13 33.957184 -118.188868 262 1888ft 147kts
17-Jun-17 15:14 33.952171 -118.237918 262 1890ft 147kts
17-Jun-17 15:15 33.947207 -118.286535 261 1665ft 143kts
17-Jun-17 15:16 33.942414 -118.333388 261 959ft 139kts
17-Jun-17 15:17 33.937739 -118.379112 262 235ft 133kts
17-Jun-17 15:18 33.935005 -118.405731 267 134ft 20kts
17-Jun-17 15:19 33.935344 -118.407346 323 134ft 0kts
17-Jun-17 15:20 33.935728 -118.407853 300 134ft 3kts
17-Jun-17 15:21 33.937600 -118.409100 20 134ft 7kts
17-Jun-17 15:22 33.939434 -118.408062 351 134ft 7kts
17-Jun-17 15:23 33.940262 -118.407505 78 134ft 0kts
17-Jun-17 15:24 33.940262 -118.407504 78 134ft 0kts
17-Jun-17 15:25 33.940262 -118.407504 78 134ft 0kts
17-Jun-17 15:26 33.940262 -118.407504 78 134ft 0kts
17-Jun-17 15:27 33.940262 -118.407504 78 134ft 0kts
17-Jun-17 15:28 33.940262 -118.407504 78 134ft 0kts
17-Jun-17 15:29 33.940262 -118.407504 78 134ft 0kts
17-Jun-17 15:30 33.940262 -118.407504 78 134ft 0kts
17-Jun-17 15:31 33.940262 -118.407504 78 134ft 0kts
17-Jun-17 15:32 33.940262 -118.407504 78 134ft 0kts
17-Jun-17 15:33 33.940262 -118.407504 78 134ft 0kts

Navigation Log

Ident Type
Flight plan parsing failed, navigation log unavailable